createdAt,value
2022-09-28T00:00:41.322Z,9.46
2022-09-28T00:01:41.385Z,9.43
2022-09-28T00:02:41.253Z,9.42
2022-09-28T00:03:41.143Z,9.42
2022-09-28T00:04:41.212Z,9.43
2022-09-28T00:05:41.103Z,9.43
2022-09-28T00:06:41.283Z,9.37
2022-09-28T00:07:41.102Z,9.29
2022-09-28T00:08:41.172Z,9.26
2022-09-28T00:09:40.344Z,9.32
2022-09-28T00:10:41.203Z,9.42
2022-09-28T00:11:41.175Z,9.44
2022-09-28T00:12:40.305Z,9.47
2022-09-28T00:13:41.762Z,9.52
2022-09-28T00:14:41.124Z,9.54
2022-09-28T00:15:41.063Z,9.58
2022-09-28T00:16:40.979Z,9.57
2022-09-28T00:17:41.052Z,9.64
2022-09-28T00:18:40.893Z,9.69
2022-09-28T00:19:41.224Z,9.72
2022-09-28T00:20:40.884Z,9.67
2022-09-28T00:21:41.054Z,9.64
2022-09-28T00:22:41.023Z,9.59
2022-09-28T00:23:41.943Z,9.51
2022-09-28T00:24:40.243Z,9.37
2022-09-28T00:25:41.033Z,9.33
2022-09-28T00:26:40.163Z,9.26
2022-09-28T00:27:40.963Z,9.21
2022-09-28T00:28:40.934Z,9.34
2022-09-28T00:29:40.911Z,9.46
2022-09-28T00:30:41.003Z,9.44
2022-09-28T00:44:26.423Z,9.72
2022-09-28T00:45:25.555Z,9.70
2022-09-28T00:46:25.487Z,9.79
2022-09-28T00:47:25.359Z,9.85
2022-09-28T00:48:25.237Z,9.85
2022-09-28T00:49:25.378Z,9.88
2022-09-28T00:50:25.189Z,9.88
2022-09-28T00:51:25.337Z,9.88
2022-09-28T00:52:25.266Z,9.88
2022-09-28T00:53:25.336Z,9.85
2022-09-28T00:54:25.327Z,9.85
2022-09-28T00:55:25.318Z,9.88
2022-09-28T00:56:47.127Z,9.85
2022-09-28T00:57:25.351Z,9.83
2022-09-28T00:58:47.137Z,9.82
2022-09-28T00:59:25.286Z,9.82
2022-09-28T01:00:47.116Z,9.79
2022-09-28T01:01:25.364Z,9.75
2022-09-28T01:02:47.618Z,9.57
2022-09-28T01:03:25.127Z,9.33
2022-09-28T01:04:46.868Z,9.16
2022-09-28T01:05:25.024Z,9.03
2022-09-28T01:06:46.408Z,9.03
2022-09-28T01:07:25.098Z,9.03
2022-09-28T01:08:46.837Z,9.10
2022-09-28T01:09:25.067Z,9.08
2022-09-28T01:10:46.718Z,9.03
2022-09-28T01:11:25.007Z,8.95
2022-09-28T01:12:47.469Z,8.95
2022-09-28T01:13:25.064Z,8.84
2022-09-28T01:14:46.258Z,8.77
2022-09-28T01:15:25.049Z,8.72
2022-09-28T01:16:47.001Z,8.72
2022-09-28T01:17:25.077Z,8.66
2022-09-28T01:18:47.388Z,8.70
2022-09-28T01:19:25.058Z,8.75
2022-09-28T01:20:46.817Z,8.81
2022-09-28T01:21:25.078Z,8.85
2022-09-28T01:22:47.250Z,8.84
2022-09-28T01:23:25.030Z,8.85
2022-09-28T01:24:46.717Z,8.88
2022-09-28T01:25:25.013Z,8.84
2022-09-28T01:26:46.569Z,8.75
2022-09-28T01:27:25.068Z,8.72
2022-09-28T01:28:47.467Z,8.70
2022-09-28T01:29:25.119Z,8.57
2022-09-28T01:30:46.229Z,8.44
2022-09-28T01:31:24.972Z,8.29
2022-09-28T01:32:24.936Z,8.20
2022-09-28T01:33:46.530Z,8.13
2022-09-28T01:34:24.858Z,8.12
2022-09-28T01:35:46.638Z,8.11
2022-09-28T01:36:24.907Z,8.09
2022-09-28T07:30:36.492Z,18.33
2022-09-28T07:31:29.900Z,18.19
2022-09-28T07:32:29.100Z,18.09
2022-09-28T07:33:28.890Z,18.03
2022-09-28T07:34:29.899Z,18.40
2022-09-28T07:35:29.350Z,18.60
2022-09-28T07:36:28.301Z,18.22
2022-09-28T07:37:29.041Z,18.44
2022-09-28T07:38:29.020Z,18.52
2022-09-28T07:39:29.312Z,18.80
2022-09-28T07:40:29.058Z,19.31
2022-09-28T07:41:29.310Z,19.63
2022-09-28T07:42:29.041Z,20.01
2022-09-28T07:43:28.868Z,20.50
2022-09-28T07:44:29.560Z,20.33
2022-09-28T07:45:29.135Z,20.26
2022-09-28T07:46:28.170Z,20.36
2022-09-28T07:47:34.708Z,20.44
2022-09-28T07:48:28.911Z,20.37
2022-09-28T07:49:28.922Z,20.37
2022-09-28T07:50:29.620Z,20.22
2022-09-28T07:51:28.151Z,20.15
2022-09-28T07:52:28.089Z,20.67
2022-09-28T07:53:30.002Z,20.40
2022-09-28T07:54:28.874Z,20.01
2022-09-28T07:55:28.980Z,20.25
2022-09-28T07:56:28.819Z,20.17
2022-09-28T07:57:28.970Z,20.55
2022-09-28T07:58:28.550Z,20.71
2022-09-28T07:59:29.020Z,21.20
2022-09-28T08:00:33.222Z,21.89
2022-09-28T08:01:28.927Z,22.53
2022-09-28T08:02:28.036Z,22.14
2022-09-28T08:03:29.781Z,22.68
2022-09-28T08:04:29.531Z,21.55
2022-09-28T08:05:28.630Z,19.55
2022-09-28T08:06:28.793Z,19.70
2022-09-28T08:07:29.480Z,19.66
2022-09-28T08:08:28.151Z,19.27
2022-09-28T08:09:27.902Z,19.14
2022-09-28T08:10:28.754Z,18.28
2022-09-28T08:11:29.120Z,18.12
2022-09-28T08:12:28.890Z,17.83
2022-09-28T08:13:28.751Z,17.97
2022-09-28T08:14:29.681Z,17.70
2022-09-28T08:15:28.643Z,17.80
2022-09-28T08:16:28.735Z,17.44
2022-09-28T08:17:28.879Z,17.73
2022-09-28T08:18:29.630Z,17.33
2022-09-28T08:19:28.670Z,17.17
2022-09-28T08:20:27.990Z,16.89
2022-09-28T08:21:27.753Z,16.84
2022-09-28T08:22:27.865Z,16.96
2022-09-28T08:23:29.450Z,16.68
2022-09-28T08:24:28.490Z,16.76
2022-09-28T08:25:28.621Z,16.87
2022-09-28T08:26:28.502Z,16.66
2022-09-28T08:27:27.691Z,16.64
2022-09-28T08:28:28.610Z,17.02
2022-09-28T08:29:27.680Z,17.39
2022-09-28T08:30:28.375Z,17.26
2022-09-28T08:31:28.512Z,17.45
2022-09-28T08:32:29.292Z,17.64
2022-09-28T08:33:28.327Z,17.53
2022-09-28T08:34:28.571Z,17.86
2022-09-28T08:35:27.872Z,18.35
2022-09-28T08:36:27.590Z,18.75
2022-09-28T08:37:28.270Z,19.45
2022-09-28T08:38:28.401Z,20.29
2022-09-28T08:39:29.090Z,20.55
2022-09-28T08:40:28.133Z,20.63
2022-09-28T08:41:28.211Z,20.10
2022-09-28T08:42:27.561Z,19.37
2022-09-28T08:43:27.552Z,19.14
2022-09-28T08:44:28.482Z,19.04
2022-09-28T08:45:27.682Z,18.88
2022-09-28T08:46:29.062Z,18.85
2022-09-28T08:47:28.739Z,18.67
2022-09-28T08:48:29.081Z,18.48
2022-09-28T08:49:28.752Z,18.23
2022-09-28T08:50:28.743Z,18.00
2022-09-28T08:51:29.150Z,17.85
2022-09-28T08:52:28.140Z,17.98
2022-09-28T08:53:28.560Z,17.89
2022-09-28T08:54:30.180Z,17.49
2022-09-28T08:55:28.602Z,17.33
2022-09-28T08:56:28.510Z,17.51
2022-09-28T08:57:27.636Z,17.63
2022-09-28T08:58:27.371Z,17.65
2022-09-28T08:59:27.380Z,17.33
2022-09-28T09:00:28.130Z,17.26
2022-09-28T09:01:28.895Z,17.23
2022-09-28T09:02:28.203Z,17.23
2022-09-28T09:03:27.960Z,17.37
2022-09-28T09:04:28.090Z,17.27
2022-09-28T09:05:27.302Z,17.49
2022-09-28T09:06:28.380Z,17.86
2022-09-28T09:07:29.551Z,18.16
2022-09-28T09:08:28.651Z,18.19
2022-09-28T09:09:28.904Z,18.05
2022-09-28T09:10:29.202Z,18.20
2022-09-28T09:11:27.283Z,18.44
2022-09-28T09:12:28.250Z,18.13
2022-09-28T09:13:27.951Z,18.67
2022-09-28T09:14:28.300Z,18.85
2022-09-28T09:15:28.241Z,18.89
2022-09-28T09:16:27.229Z,18.90
2022-09-28T09:17:28.850Z,18.85
2022-09-28T09:18:28.171Z,19.00
2022-09-28T09:19:28.026Z,18.90
2022-09-28T09:20:28.672Z,18.85
2022-09-28T09:21:28.081Z,18.73
2022-09-28T09:22:27.921Z,18.60
2022-09-28T09:23:27.120Z,18.49
2022-09-28T09:24:28.501Z,18.38
2022-09-28T09:25:27.080Z,18.89
2022-09-28T09:26:29.090Z,19.22
2022-09-28T09:27:28.721Z,19.05
2022-09-28T09:28:27.814Z,18.80
2022-09-28T09:29:27.982Z,18.93
2022-09-28T09:30:30.469Z,18.93
2022-09-28T09:31:27.037Z,19.34
2022-09-28T09:32:27.062Z,20.40
2022-09-28T09:33:27.391Z,20.55
2022-09-28T09:34:27.811Z,19.97
2022-09-28T09:35:30.534Z,19.94
2022-09-28T09:36:26.971Z,19.92
2022-09-28T09:37:27.030Z,19.84
2022-09-28T09:38:28.732Z,19.89
2022-09-28T09:39:28.611Z,19.71
2022-09-28T09:40:26.966Z,19.99
2022-09-28T09:41:28.515Z,20.29
2022-09-28T09:42:27.670Z,19.60
2022-09-28T09:43:30.886Z,19.71
2022-09-28T09:44:26.871Z,20.19
2022-09-28T09:45:27.141Z,19.78
2022-09-28T09:46:27.879Z,19.84
2022-09-28T09:47:26.874Z,20.28
2022-09-28T09:48:27.574Z,20.39
2022-09-28T09:49:27.691Z,20.07
2022-09-28T09:50:27.032Z,19.49
2022-09-28T09:51:27.890Z,19.76
2022-09-28T09:52:26.873Z,19.69
2022-09-28T09:53:27.653Z,19.73
2022-09-28T09:54:28.231Z,19.60
2022-09-28T09:55:30.135Z,19.71
2022-09-28T09:56:28.540Z,19.46
2022-09-28T09:57:27.630Z,19.05
2022-09-28T09:58:26.790Z,18.83
2022-09-28T09:59:26.820Z,18.78
2022-09-28T10:00:28.512Z,18.92
2022-09-28T10:01:27.520Z,19.12
2022-09-28T10:02:28.259Z,18.96
2022-09-28T10:03:27.602Z,18.95
2022-09-28T10:04:27.660Z,19.29
2022-09-28T10:05:26.680Z,19.39
2022-09-28T10:06:27.583Z,19.12
2022-09-28T10:07:28.234Z,19.14
2022-09-28T10:08:27.271Z,19.11
2022-09-28T10:09:26.670Z,19.27
2022-09-28T10:10:27.519Z,18.85
2022-09-28T10:11:26.952Z,18.86
2022-09-28T10:12:27.390Z,19.04
2022-09-28T10:13:27.080Z,19.00
2022-09-28T10:14:28.840Z,19.30
2022-09-28T10:15:27.340Z,19.52
2022-09-28T10:16:26.595Z,20.03
2022-09-28T10:17:27.690Z,20.22
2022-09-28T10:18:27.950Z,19.89
2022-09-28T10:19:26.550Z,19.09
2022-09-28T10:20:27.141Z,18.66
2022-09-28T10:21:27.311Z,18.68
2022-09-28T10:22:27.022Z,18.67
2022-09-28T10:23:28.481Z,18.33
2022-09-28T10:24:27.449Z,18.41
2022-09-28T10:25:28.662Z,18.62
2022-09-28T10:26:28.161Z,18.92
2022-09-28T10:27:26.540Z,19.31
2022-09-28T10:28:27.431Z,19.64
2022-09-28T10:29:26.494Z,19.86
2022-09-28T10:30:27.505Z,20.15
2022-09-28T10:31:27.231Z,20.72
2022-09-28T10:32:27.494Z,21.06
2022-09-28T10:33:27.060Z,21.03
2022-09-28T10:34:27.601Z,20.90
2022-09-28T10:35:27.520Z,20.90
2022-09-28T10:36:26.351Z,20.31
2022-09-28T10:37:26.992Z,19.97
2022-09-28T10:38:26.701Z,20.09
2022-09-28T10:39:28.164Z,20.09
2022-09-28T10:40:27.597Z,20.14
2022-09-28T10:41:27.061Z,20.09
2022-09-28T10:42:27.242Z,19.37
2022-09-28T10:43:27.091Z,19.27
2022-09-28T10:44:26.241Z,19.37
2022-09-28T10:45:28.919Z,19.44
2022-09-28T10:46:27.086Z,19.31
2022-09-28T10:47:26.952Z,19.56
2022-09-28T10:48:26.809Z,19.60
2022-09-28T10:49:27.037Z,19.71
2022-09-28T10:50:26.478Z,19.39
2022-09-28T10:51:26.979Z,19.23
2022-09-28T10:52:27.759Z,19.07
2022-09-28T10:53:26.161Z,18.95
2022-09-28T10:54:27.602Z,19.04
2022-09-28T10:55:26.982Z,18.95
2022-09-28T10:56:27.128Z,18.80
2022-09-28T10:57:27.252Z,18.66
2022-09-28T10:58:26.870Z,18.55
2022-09-28T10:59:26.979Z,18.71
2022-09-28T11:00:27.870Z,18.86
2022-09-28T11:01:27.297Z,19.08
2022-09-28T11:02:26.936Z,19.30
2022-09-28T11:03:27.890Z,19.42
2022-09-28T11:04:26.350Z,19.54
2022-09-28T11:05:26.741Z,19.09
2022-09-28T11:06:26.000Z,19.00
2022-09-28T11:07:27.598Z,18.96
2022-09-28T11:08:27.350Z,19.14
2022-09-28T11:09:29.933Z,19.09
2022-09-28T11:10:27.848Z,18.92
2022-09-28T11:11:26.660Z,18.99
2022-09-28T11:12:28.147Z,19.27
2022-09-28T11:13:26.648Z,19.34
2022-09-28T11:14:27.108Z,19.29
2022-09-28T11:15:26.688Z,19.22
2022-09-28T11:16:27.145Z,19.26
2022-09-28T11:17:26.631Z,19.16
2022-09-28T11:18:26.807Z,19.34
2022-09-28T11:19:26.629Z,19.54
2022-09-28T11:20:28.329Z,19.64
2022-09-28T11:21:57.009Z,19.36
2022-09-28T11:22:57.600Z,19.22
2022-09-28T11:24:57.547Z,19.11
2022-09-28T11:25:57.698Z,19.08
2022-09-28T11:26:57.790Z,19.44
2022-09-28T11:27:57.656Z,19.76
2022-09-28T11:28:57.547Z,19.74
2022-09-28T11:29:57.935Z,19.63
2022-09-28T11:30:57.673Z,19.56
2022-09-28T11:31:57.896Z,19.62
2022-09-28T11:32:57.527Z,19.54
2022-09-28T11:33:57.725Z,19.44
2022-09-28T11:35:00.201Z,19.33
2022-09-28T11:35:57.671Z,19.27
2022-09-28T11:37:01.579Z,19.51
2022-09-28T11:37:57.678Z,19.71
2022-09-28T11:38:57.576Z,19.74
2022-09-28T11:39:57.948Z,19.74
2022-09-28T11:40:58.093Z,19.74
2022-09-28T11:41:57.629Z,19.46
2022-09-28T11:42:57.660Z,19.48
2022-09-28T11:43:57.396Z,19.09
2022-09-28T11:44:57.536Z,19.19
2022-09-28T11:45:57.510Z,19.33
2022-09-28T11:46:57.566Z,19.24
2022-09-28T11:47:57.368Z,19.42
2022-09-28T11:48:56.724Z,19.36
2022-09-28T11:49:57.388Z,19.48
2022-09-28T11:50:57.815Z,19.56
2022-09-28T11:51:57.429Z,19.33
2022-09-28T11:52:57.505Z,19.39
2022-09-28T11:53:56.636Z,19.52
2022-09-28T11:54:57.605Z,19.45
2022-09-28T11:55:57.427Z,19.60
2022-09-28T11:56:57.486Z,19.63
2022-09-28T11:57:57.365Z,19.60
2022-09-28T11:58:57.276Z,19.54
2022-09-28T11:59:57.368Z,19.69
2022-09-28T12:00:57.317Z,19.78
2022-09-28T12:01:58.206Z,19.71
2022-09-28T12:02:57.368Z,19.52
2022-09-28T12:03:57.379Z,19.45
2022-09-28T12:04:57.227Z,19.60
2022-09-28T12:05:57.315Z,19.71
2022-09-28T12:06:57.289Z,19.69
2022-09-28T12:07:57.516Z,19.52
2022-09-28T12:08:57.759Z,19.59
2022-09-28T12:09:57.352Z,19.56
2022-09-28T12:10:57.181Z,19.51
2022-09-28T12:11:57.350Z,19.45
2022-09-28T12:12:57.287Z,19.31
2022-09-28T12:13:57.037Z,19.24
2022-09-28T12:14:57.275Z,19.07
2022-09-28T12:16:26.647Z,18.81
2022-09-28T12:17:07.622Z,18.73
2022-09-28T12:17:57.428Z,18.90
2022-09-28T12:18:57.386Z,18.96
2022-09-28T12:19:57.075Z,18.86
2022-09-28T12:20:59.659Z,18.93
2022-09-28T12:21:57.040Z,18.96
2022-09-28T12:22:57.306Z,19.04
2022-09-28T12:23:56.336Z,19.15
2022-09-28T12:24:57.118Z,19.34
2022-09-28T12:25:57.366Z,19.55
2022-09-28T12:26:57.166Z,19.78
2022-09-28T12:27:57.038Z,19.88
2022-09-28T12:28:57.025Z,19.84
2022-09-28T12:29:57.046Z,19.89
2022-09-28T12:30:57.092Z,20.00
2022-09-28T12:31:57.056Z,20.03
2022-09-28T12:32:57.208Z,20.15
2022-09-28T12:33:57.035Z,20.11
2022-09-28T12:34:57.496Z,20.01
2022-09-28T12:35:57.126Z,19.76
2022-09-28T12:36:57.066Z,19.63
2022-09-28T12:37:57.126Z,19.74
2022-09-28T12:39:17.593Z,19.73
2022-09-28T12:39:58.446Z,19.63
2022-09-28T12:40:56.966Z,19.52
2022-09-28T12:41:56.946Z,19.56
2022-09-28T12:42:57.157Z,19.73
2022-09-28T12:43:56.748Z,19.88
2022-09-28T12:44:59.433Z,20.03
2022-09-28T12:46:11.434Z,20.18
2022-09-28T12:46:56.942Z,20.11
2022-09-28T12:47:56.757Z,20.10
2022-09-28T12:49:43.656Z,20.29
2022-09-28T12:50:58.411Z,20.25
2022-09-28T12:51:56.756Z,20.25
2022-09-28T12:53:00.693Z,20.33
2022-09-28T12:53:56.886Z,20.33
2022-09-28T12:54:56.947Z,20.24
2022-09-28T12:55:56.767Z,19.94
2022-09-28T12:56:57.376Z,19.85
2022-09-28T12:57:56.696Z,19.91
2022-09-28T12:58:56.946Z,19.86
2022-09-28T12:59:56.838Z,19.84
2022-09-28T13:00:57.356Z,19.52
2022-09-28T13:01:57.044Z,19.42
2022-09-28T13:02:56.844Z,19.59
2022-09-28T13:03:56.788Z,19.70
2022-09-28T13:04:56.575Z,19.85
2022-09-28T13:05:56.687Z,20.07
2022-09-28T13:06:56.796Z,20.17
2022-09-28T13:07:56.892Z,20.28
2022-09-28T13:08:56.947Z,20.36
2022-09-28T13:09:56.715Z,20.36
2022-09-28T13:10:56.707Z,20.22
2022-09-28T13:11:56.698Z,20.22
2022-09-28T13:12:56.557Z,20.25
2022-09-28T13:13:56.465Z,20.40
2022-09-28T13:14:56.538Z,20.21
2022-09-28T13:15:56.418Z,20.24
2022-09-28T13:17:00.473Z,20.24
2022-09-28T13:17:56.702Z,20.19
2022-09-28T13:18:56.517Z,20.22
2022-09-28T13:19:56.411Z,20.18
2022-09-28T13:20:57.075Z,20.15
2022-09-28T13:25:58.735Z,19.51
2022-09-28T13:26:58.975Z,19.42
2022-09-28T13:27:59.224Z,19.27
2022-09-28T13:29:00.734Z,19.18
2022-09-28T13:30:00.810Z,19.23
2022-09-28T13:32:33.364Z,19.33
2022-09-28T13:33:29.815Z,19.44
2022-09-28T13:34:29.816Z,19.59
2022-09-28T13:35:30.716Z,19.64
2022-09-28T13:36:30.787Z,19.67
2022-09-28T13:37:53.216Z,19.70
2022-09-28T13:42:28.335Z,19.59
2022-09-28T13:43:29.585Z,19.59
2022-09-28T13:49:56.225Z,19.74
2022-09-28T13:52:33.615Z,19.73
2022-09-28T13:53:30.582Z,19.70
2022-09-28T13:54:28.152Z,19.60
2022-09-28T13:55:28.172Z,19.70
2022-09-28T13:56:28.095Z,19.74
2022-09-28T13:57:28.303Z,19.74
2022-09-28T13:58:28.276Z,19.69
2022-09-28T13:59:28.044Z,19.64
2022-09-28T14:00:28.153Z,19.54
2022-09-28T14:01:28.287Z,19.49
2022-09-28T14:02:28.237Z,19.52
2022-09-28T14:03:28.313Z,19.46
2022-09-28T14:04:28.292Z,19.48
2022-09-28T14:05:27.911Z,19.46
2022-09-28T14:06:28.473Z,19.41
2022-09-28T14:08:28.519Z,19.29
2022-09-28T14:09:27.933Z,19.27
2022-09-28T14:10:28.012Z,19.19
2022-09-28T14:11:28.052Z,19.05
2022-09-28T14:12:28.134Z,19.09
2022-09-28T14:13:28.143Z,19.09
2022-09-28T14:14:28.004Z,19.09
2022-09-28T14:15:28.118Z,19.08
2022-09-28T14:16:27.904Z,19.07
2022-09-28T14:17:28.134Z,19.11
2022-09-28T14:18:27.832Z,19.15
2022-09-28T14:19:28.002Z,19.11
2022-09-28T14:20:28.987Z,18.95
2022-09-28T14:23:03.144Z,18.86
2022-09-28T14:23:59.883Z,18.74
2022-09-28T14:24:58.855Z,18.74
2022-09-28T14:25:59.415Z,18.68
2022-09-28T14:26:58.974Z,18.56
2022-09-28T14:27:59.632Z,18.40
2022-09-28T14:28:58.553Z,18.38
2022-09-28T14:29:58.435Z,18.46
2022-09-28T14:30:58.526Z,18.52
2022-09-28T14:31:58.305Z,18.56
2022-09-28T14:32:58.803Z,18.60
2022-09-28T14:33:58.401Z,18.63
2022-09-28T14:35:00.513Z,18.62
2022-09-28T14:35:59.591Z,18.62
2022-09-28T14:36:59.717Z,18.60
2022-09-28T14:37:58.508Z,18.56
2022-09-28T14:38:58.427Z,18.49
2022-09-28T14:39:58.546Z,18.41
2022-09-28T14:40:59.752Z,18.49
2022-09-28T14:43:01.340Z,18.50
2022-09-28T14:44:01.200Z,18.40
2022-09-28T14:45:05.407Z,18.43
2022-09-28T14:46:01.286Z,18.35
2022-09-28T14:47:01.349Z,18.38
2022-09-28T14:48:01.329Z,18.35
2022-09-28T14:49:01.748Z,18.37
2022-09-28T14:50:01.291Z,18.34
2022-09-28T14:51:01.228Z,18.22
2022-09-28T14:52:01.250Z,18.13
2022-09-28T14:53:01.069Z,17.82
2022-09-28T14:56:40.148Z,17.82
2022-09-28T14:57:42.161Z,17.78
2022-09-28T14:59:42.387Z,17.79
2022-09-28T15:00:43.433Z,17.76
2022-09-28T15:01:42.313Z,17.70
2022-09-28T15:02:42.133Z,17.64
2022-09-28T15:03:42.047Z,17.59
2022-09-28T15:04:42.567Z,17.57
2022-09-28T15:05:42.180Z,17.45
2022-09-28T15:06:42.992Z,17.37
2022-09-28T15:07:42.333Z,17.33
2022-09-28T15:08:41.835Z,17.24
2022-09-28T15:09:42.123Z,17.26
2022-09-28T15:10:42.234Z,17.29
2022-09-28T15:11:43.094Z,17.27
2022-09-28T15:12:43.173Z,17.24
2022-09-28T15:13:42.383Z,17.26
2022-09-28T15:14:42.152Z,17.29
2022-09-28T15:15:42.266Z,17.29
2022-09-28T15:16:42.212Z,17.23
2022-09-28T15:17:42.402Z,17.14
2022-09-28T15:18:41.892Z,17.20
2022-09-28T15:19:41.993Z,17.11
2022-09-28T15:20:41.972Z,17.06
2022-09-28T15:21:42.083Z,16.99
2022-09-28T15:22:41.894Z,16.94
2022-09-28T15:23:41.985Z,16.94
2022-09-28T15:24:41.943Z,16.86
2022-09-28T15:25:43.285Z,16.82
2022-09-28T15:26:41.862Z,16.80
2022-09-28T15:27:41.972Z,16.79
2022-09-28T15:28:41.772Z,16.89
2022-09-28T15:29:42.104Z,16.91
2022-09-28T15:30:41.894Z,16.82
2022-09-28T15:31:41.964Z,16.86
2022-09-28T15:32:41.843Z,16.83
2022-09-28T15:33:41.663Z,16.79
2022-09-28T15:34:42.023Z,16.80
2022-09-28T15:35:42.003Z,16.82
2022-09-28T15:36:42.163Z,16.93
2022-09-28T15:37:42.223Z,16.91
2022-09-28T15:38:42.193Z,16.90
2022-09-28T15:39:41.813Z,16.96
2022-09-28T15:40:41.828Z,17.02
2022-09-28T15:41:42.064Z,17.05
2022-09-28T15:42:41.774Z,17.05
2022-09-28T15:43:42.831Z,17.08
2022-09-28T15:44:42.372Z,17.09
2022-09-28T15:45:43.143Z,17.11
2022-09-28T15:46:43.106Z,17.09
2022-09-28T15:47:41.785Z,17.08
2022-09-28T15:48:43.575Z,17.04
2022-09-28T15:49:42.296Z,16.98
2022-09-28T15:50:41.534Z,16.89
2022-09-28T15:51:41.943Z,16.82
2022-09-28T15:52:42.729Z,16.83
2022-09-28T15:53:41.711Z,16.83
2022-09-28T15:54:41.688Z,16.83
2022-09-28T15:55:41.709Z,16.82
2022-09-28T15:56:41.548Z,16.75
2022-09-28T15:57:43.168Z,16.69
2022-09-28T15:58:41.758Z,16.62
2022-09-28T15:59:43.718Z,16.56
2022-09-28T16:00:42.500Z,16.54
2022-09-28T16:01:42.034Z,16.50
2022-09-28T16:02:41.687Z,16.51
2022-09-28T16:03:41.646Z,16.46
2022-09-28T16:04:41.527Z,16.46
2022-09-28T16:05:42.568Z,16.36
2022-09-28T16:06:41.547Z,16.28
2022-09-28T16:07:41.381Z,16.28
2022-09-28T16:08:41.589Z,16.32
2022-09-28T16:09:41.385Z,16.36
2022-09-28T16:10:41.507Z,16.36
2022-09-28T16:11:44.247Z,16.35
2022-09-28T16:12:41.560Z,16.32
2022-09-28T16:13:41.359Z,16.32
2022-09-28T16:14:41.546Z,16.28
2022-09-28T16:15:41.470Z,16.31
2022-09-28T16:16:46.253Z,16.34
2022-09-28T16:17:41.407Z,16.38
2022-09-28T16:18:41.436Z,16.39
2022-09-28T16:19:41.590Z,16.41
2022-09-28T16:20:41.258Z,16.44
2022-09-28T16:21:41.348Z,16.44
2022-09-28T16:22:41.289Z,16.43
2022-09-28T16:23:41.519Z,16.41
2022-09-28T16:24:41.467Z,16.39
2022-09-28T16:25:41.809Z,16.36
2022-09-28T16:26:41.407Z,16.32
2022-09-28T16:27:41.428Z,16.29
2022-09-28T16:28:41.287Z,16.26
2022-09-28T16:29:41.468Z,16.12
2022-09-28T16:30:42.255Z,16.00
2022-09-28T16:31:41.436Z,15.90
2022-09-28T16:32:41.337Z,15.79
2022-09-28T16:33:41.449Z,15.69
2022-09-28T16:34:41.248Z,15.61
2022-09-28T16:35:41.117Z,15.58
2022-09-28T16:36:42.191Z,15.52
2022-09-28T16:37:41.730Z,15.52
2022-09-28T16:39:11.623Z,15.44
2022-09-28T16:40:12.456Z,15.40
2022-09-28T16:41:12.557Z,15.39
2022-09-28T16:42:11.617Z,15.35
2022-09-28T16:43:12.249Z,15.35
2022-09-28T16:44:11.859Z,15.37
2022-09-28T16:45:13.428Z,15.33
2022-09-28T16:46:12.513Z,15.35
2022-09-28T16:47:12.297Z,15.33
2022-09-28T16:48:12.863Z,15.35
2022-09-28T16:49:12.382Z,15.32
2022-09-28T16:50:12.316Z,15.25
2022-09-28T16:51:12.627Z,15.25
2022-09-28T16:52:11.554Z,15.21
2022-09-28T16:53:11.838Z,15.22
2022-09-28T16:54:12.186Z,15.21
2022-09-28T16:55:35.887Z,15.09
2022-09-28T16:56:12.906Z,15.17
2022-09-28T16:57:12.337Z,15.11
2022-09-28T16:58:11.827Z,14.95
2022-09-28T16:59:13.897Z,14.82
2022-09-28T17:00:11.436Z,14.74
2022-09-28T17:01:12.786Z,14.69
2022-09-28T17:02:24.853Z,14.63
2022-09-28T17:03:13.089Z,14.53
2022-09-28T17:04:13.077Z,14.41
2022-09-28T17:05:12.467Z,14.29
2022-09-28T17:06:12.257Z,14.20
2022-09-28T17:07:12.557Z,14.19
2022-09-28T17:08:12.146Z,14.25
2022-09-28T17:09:11.861Z,14.33
2022-09-28T17:10:12.467Z,14.37
2022-09-28T17:11:17.011Z,14.40
2022-09-28T17:12:12.427Z,14.41
2022-09-28T17:13:12.996Z,14.38
2022-09-28T17:14:11.417Z,14.40
2022-09-28T17:15:13.458Z,14.37
2022-09-28T17:16:13.244Z,14.41
2022-09-28T17:17:16.849Z,14.44
2022-09-28T17:18:12.047Z,14.51
2022-09-28T17:19:12.002Z,14.56
2022-09-28T17:20:11.268Z,14.56
2022-09-28T17:21:11.956Z,14.56
2022-09-28T17:22:11.166Z,14.53
2022-09-28T17:23:12.577Z,14.45
2022-09-28T17:24:11.813Z,14.38
2022-09-28T17:25:13.316Z,14.32
2022-09-28T17:26:11.867Z,14.25
2022-09-28T17:27:11.968Z,14.22
2022-09-28T17:28:13.357Z,14.18
2022-09-28T17:29:11.936Z,14.18
2022-09-28T17:30:11.765Z,14.14
2022-09-28T17:31:11.919Z,14.13
2022-09-28T17:32:11.945Z,14.11
2022-09-28T17:33:11.966Z,14.08
2022-09-28T17:34:11.862Z,14.11
2022-09-28T17:35:24.244Z,14.13
2022-09-28T17:36:11.804Z,14.10
2022-09-28T17:37:11.815Z,14.07
2022-09-28T17:38:11.935Z,14.03
2022-09-28T17:39:11.566Z,13.97
2022-09-28T17:40:11.835Z,13.97
2022-09-28T17:41:11.595Z,13.97
2022-09-28T17:42:11.765Z,13.93
2022-09-28T17:43:11.623Z,13.92
2022-09-28T17:44:11.849Z,13.92
2022-09-28T17:45:11.615Z,13.93
2022-09-28T17:46:11.928Z,13.96
2022-09-28T17:47:11.575Z,13.96
2022-09-28T17:48:12.777Z,13.95
2022-09-28T17:49:11.705Z,13.96
2022-09-28T17:50:12.035Z,14.03
2022-09-28T17:51:11.640Z,14.03
2022-09-28T17:52:11.866Z,14.03
2022-09-28T17:53:11.695Z,14.05
2022-09-28T17:54:11.445Z,14.05
2022-09-28T17:55:11.795Z,14.07
2022-09-28T17:56:11.515Z,14.08
2022-09-28T17:57:11.605Z,14.11
2022-09-28T17:58:11.575Z,14.11
2022-09-28T17:59:11.715Z,14.11
2022-09-28T18:00:12.416Z,14.10
2022-09-28T18:01:11.689Z,14.10
2022-09-28T18:02:11.736Z,14.04
2022-09-28T18:03:11.545Z,14.08
2022-09-28T18:04:22.944Z,14.08
2022-09-28T18:05:11.616Z,14.10
2022-09-28T18:06:11.525Z,14.13
2022-09-28T18:07:11.816Z,14.14
2022-09-28T18:08:11.806Z,14.08
2022-09-28T18:09:11.226Z,14.13
2022-09-28T18:10:11.635Z,14.15
2022-09-28T18:11:11.425Z,14.11
2022-09-28T18:12:11.545Z,14.10
2022-09-28T18:13:11.277Z,14.08
2022-09-28T18:14:11.570Z,14.13
2022-09-28T18:15:11.295Z,14.10
2022-09-28T18:16:11.672Z,14.08
2022-09-28T18:17:11.286Z,14.10
2022-09-28T18:18:11.426Z,14.08
2022-09-28T18:19:11.665Z,14.10
2022-09-28T18:20:11.447Z,14.08
2022-09-28T18:21:11.435Z,14.05
2022-09-28T18:22:11.326Z,14.07
2022-09-28T18:23:11.277Z,14.08
2022-09-28T18:24:11.551Z,14.08
2022-09-28T18:25:11.387Z,14.08
2022-09-28T18:26:11.186Z,14.05
2022-09-28T18:27:11.315Z,14.01
2022-09-28T18:28:11.505Z,14.01
2022-09-28T18:29:11.287Z,13.96
2022-09-28T18:30:11.186Z,13.97
2022-09-28T18:31:11.680Z,13.96
2022-09-28T18:32:11.525Z,13.95
2022-09-28T18:33:10.487Z,13.90
2022-09-28T18:34:11.282Z,13.93
2022-09-28T18:35:11.230Z,13.93
2022-09-28T18:36:11.085Z,13.95
2022-09-28T18:37:11.315Z,13.93
2022-09-28T18:38:11.145Z,14.00
2022-09-28T18:39:11.356Z,13.89
2022-09-28T18:40:11.247Z,13.83
2022-09-28T18:41:10.915Z,13.86
2022-09-28T18:42:11.146Z,13.90
2022-09-28T18:43:11.525Z,13.95
2022-09-28T18:44:11.105Z,13.96
2022-09-28T18:45:11.075Z,13.92
2022-09-28T18:46:11.294Z,13.96
2022-09-28T18:47:11.286Z,13.92
2022-09-28T18:48:11.467Z,13.83
2022-09-28T18:49:11.015Z,13.74
2022-09-28T18:50:11.085Z,13.70
2022-09-28T18:51:11.016Z,13.72
2022-09-28T18:52:11.025Z,13.67
2022-09-28T18:53:10.975Z,13.63
2022-09-28T18:54:10.887Z,13.52
2022-09-28T18:55:10.974Z,13.43
2022-09-28T18:56:10.827Z,13.37
2022-09-28T18:57:11.285Z,13.31
2022-09-28T18:58:11.306Z,13.26
2022-09-28T18:59:12.452Z,13.18
2022-09-28T19:00:10.883Z,13.12
2022-09-28T19:01:29.452Z,13.12
2022-09-28T19:02:11.113Z,13.19
2022-09-28T19:03:11.131Z,13.31
2022-09-28T19:04:10.845Z,13.33
2022-09-28T19:05:11.094Z,13.22
2022-09-28T19:06:10.825Z,13.18
2022-09-28T19:07:11.195Z,13.18
2022-09-28T19:08:10.846Z,13.16
2022-09-28T19:09:10.657Z,13.13
2022-09-28T19:10:10.789Z,13.15
2022-09-28T19:11:10.726Z,13.16
2022-09-28T19:12:11.047Z,13.26
2022-09-28T19:13:10.662Z,13.22
2022-09-28T19:14:10.797Z,13.18
2022-09-28T19:15:10.646Z,13.21
2022-09-28T19:16:10.967Z,13.13
2022-09-28T19:17:10.626Z,13.16
2022-09-28T19:18:11.126Z,13.21
2022-09-28T19:19:10.707Z,13.21
2022-09-28T19:20:10.735Z,13.21
2022-09-28T19:21:10.836Z,13.06
2022-09-28T19:22:10.704Z,13.06
2022-09-28T19:23:10.625Z,13.03
2022-09-28T19:24:10.445Z,13.08
2022-09-28T19:25:10.725Z,13.12
2022-09-28T19:26:10.555Z,13.11
2022-09-28T19:27:10.697Z,13.13
2022-09-28T19:28:10.444Z,13.11